createdAt,value
2022-12-11T00:02:25.471Z,100639.31
2022-12-11T00:04:53.388Z,100644.53
2022-12-11T00:07:21.341Z,100648.31
2022-12-11T00:09:49.573Z,100648.31
2022-12-11T00:12:17.444Z,100651.84
2022-12-11T00:14:45.354Z,100649.13
2022-12-11T00:17:13.265Z,100653.75
2022-12-11T00:19:42.848Z,100657.28
2022-12-11T00:22:10.751Z,100646.88
2022-12-11T00:24:38.711Z,100643.31
2022-12-11T00:27:06.600Z,100641.19
2022-12-11T00:29:34.774Z,100645.59
2022-12-11T00:32:02.742Z,100648.31
2022-12-11T00:34:31.091Z,100647.47
2022-12-11T00:37:00.820Z,100649.34
2022-12-11T00:39:28.762Z,100657.28
2022-12-11T00:41:56.642Z,100648.31
2022-12-11T00:44:24.548Z,100645.84
2022-12-11T00:46:52.449Z,100648.31
2022-12-11T00:49:20.376Z,100646.88
2022-12-11T00:51:48.258Z,100641.19
2022-12-11T00:54:17.526Z,100642.03
2022-12-11T00:56:45.370Z,100648.56
2022-12-11T00:59:13.595Z,100638.47
2022-12-11T01:01:41.579Z,100635.75
2022-12-11T01:04:09.506Z,100634.97
2022-12-11T01:06:37.414Z,100639.31
2022-12-11T01:09:22.839Z,100636.00
2022-12-11T01:11:52.131Z,100631.41
2022-12-11T01:14:20.113Z,100636.00
2022-12-11T01:16:48.009Z,100636.00
2022-12-11T01:19:18.791Z,100641.19
2022-12-11T01:21:46.660Z,100643.91
2022-12-11T01:24:14.532Z,100643.31
2022-12-11T01:26:42.433Z,100651.28
2022-12-11T01:29:12.194Z,100649.59
2022-12-11T01:31:40.048Z,100650.44
2022-12-11T01:34:08.263Z,100649.59
2022-12-11T01:36:36.098Z,100649.59
2022-12-11T01:39:03.973Z,100645.84
2022-12-11T01:41:31.872Z,100636.00
2022-12-11T01:44:01.238Z,100645.84
2022-12-11T01:46:30.976Z,100643.31
2022-12-11T01:48:58.969Z,100634.13
2022-12-11T01:51:26.841Z,100632.25
2022-12-11T01:53:55.490Z,100628.53
2022-12-11T01:56:23.427Z,100604.78
2022-12-11T01:58:53.863Z,100632.44
2022-12-11T02:01:23.814Z,100632.44
2022-12-11T02:03:53.218Z,100611.81
2022-12-11T02:06:34.862Z,100625.97
2022-12-11T02:09:03.035Z,100627.84
2022-12-11T02:11:34.929Z,100626.19
2022-12-11T02:14:05.928Z,100625.34
2022-12-11T02:16:36.047Z,100618.88
2022-12-11T02:19:09.238Z,100596.63
2022-12-11T02:21:39.400Z,100621.59
2022-12-11T02:24:37.134Z,100618.03
2022-12-11T02:27:13.115Z,100616.97
2022-12-11T02:29:45.087Z,100617.19
2022-12-11T02:32:15.210Z,100623.47
2022-12-11T02:34:43.878Z,100609.50
2022-12-11T02:37:14.805Z,100611.75
2022-12-11T02:39:43.140Z,100614.47
2022-12-11T02:42:11.158Z,100611.75
2022-12-11T02:44:39.033Z,100612.59
2022-12-11T02:47:09.261Z,100611.75
2022-12-11T02:49:37.380Z,100610.72
2022-12-11T02:52:05.601Z,100616.97
2022-12-11T02:54:35.828Z,100607.16
2022-12-11T02:57:04.964Z,100575.94
2022-12-11T02:59:35.809Z,100597.13
2022-12-11T03:02:03.987Z,100600.69
2022-12-11T03:04:33.291Z,100595.25
2022-12-11T03:07:12.399Z,100561.00
2022-12-11T03:09:40.481Z,100597.72
2022-12-11T03:12:08.903Z,100590.63
2022-12-11T03:14:36.794Z,100595.25
2022-12-11T03:17:07.614Z,100597.13
2022-12-11T03:19:38.406Z,100591.69
2022-12-11T03:22:10.611Z,100603.41
2022-12-11T03:24:40.677Z,100604.44
2022-12-11T03:27:11.415Z,100599.00
2022-12-11T03:29:41.533Z,100593.56
2022-12-11T03:32:10.629Z,100600.06
2022-12-11T03:34:42.810Z,100608.22
2022-12-11T03:37:10.702Z,100605.50
2022-12-11T03:39:39.858Z,100608.41
2022-12-11T03:42:08.594Z,100611.75
2022-12-11T03:44:36.447Z,100610.09
2022-12-11T03:47:06.114Z,100611.75
2022-12-11T03:49:38.127Z,100611.75
2022-12-11T03:52:07.491Z,100607.38
2022-12-11T03:54:35.448Z,100602.78
2022-12-11T03:57:03.696Z,100600.28
2022-12-11T03:59:31.835Z,100602.78
2022-12-11T04:02:00.008Z,100602.78
2022-12-11T04:04:28.054Z,100603.59
2022-12-11T04:06:55.985Z,100592.94
2022-12-11T04:09:25.509Z,100595.66
2022-12-11T04:11:53.411Z,100593.78
2022-12-11T04:14:38.751Z,100583.75
2022-12-11T04:17:06.701Z,100585.63
2022-12-11T04:19:52.021Z,100587.50
2022-12-11T04:22:37.260Z,100587.50
2022-12-11T04:25:07.923Z,100579.59
2022-12-11T04:27:51.327Z,100582.31
2022-12-11T04:30:20.310Z,100577.69
2022-12-11T04:32:48.233Z,100577.69
2022-12-11T04:35:16.167Z,100576.91
2022-12-11T04:37:44.019Z,100580.41
2022-12-11T04:40:15.171Z,100576.91
2022-12-11T04:42:43.277Z,100577.69
2022-12-11T04:45:12.514Z,100570.63
2022-12-11T04:47:40.965Z,100574.19
2022-12-11T04:50:10.938Z,100573.34
2022-12-11T04:52:38.868Z,100568.75
2022-12-11T04:55:07.541Z,100570.38
2022-12-11T04:57:36.888Z,100568.50
2022-12-11T05:00:08.973Z,100573.09
2022-12-11T05:02:37.267Z,100572.03
2022-12-11T05:05:05.741Z,100560.34
2022-12-11T05:07:33.645Z,100558.50
2022-12-11T05:10:01.793Z,100567.06
2022-12-11T05:12:29.665Z,100567.66
2022-12-11T05:14:58.926Z,100566.81
2022-12-11T05:17:26.837Z,100560.34
2022-12-11T05:19:55.007Z,100567.66
2022-12-11T05:22:22.852Z,100570.16
2022-12-11T05:24:50.738Z,100568.28
2022-12-11T05:27:18.607Z,100559.28
2022-12-11T05:29:46.768Z,100572.25
2022-12-11T05:32:16.102Z,100573.72
2022-12-11T05:34:43.993Z,100557.41
2022-12-11T05:37:11.887Z,100568.28
2022-12-11T05:39:40.120Z,100561.78
2022-12-11T05:42:08.011Z,100558.25
2022-12-11T05:44:35.878Z,100559.28
2022-12-11T05:47:03.796Z,100554.69
2022-12-11T05:49:33.336Z,100550.31
2022-12-11T05:52:01.183Z,100553.84
2022-12-11T05:54:29.056Z,100550.09
2022-12-11T05:56:56.915Z,100551.34
2022-12-11T05:59:25.042Z,100551.97
2022-12-11T06:01:53.001Z,100552.81
2022-12-11T06:04:20.884Z,100552.81
2022-12-11T06:06:50.173Z,100549.25
2022-12-11T06:09:18.623Z,100544.88
2022-12-11T06:11:46.463Z,100554.69
2022-12-11T06:14:14.408Z,100547.38
2022-12-11T06:16:42.339Z,100553.84
2022-12-11T06:19:17.375Z,100546.31
2022-12-11T06:21:45.306Z,100547.38
2022-12-11T06:24:14.548Z,100544.66
2022-12-11T06:26:42.420Z,100549.25
2022-12-11T06:29:13.000Z,100551.97
2022-12-11T06:31:41.217Z,100549.25
2022-12-11T06:34:09.799Z,100542.97
2022-12-11T06:36:37.701Z,100547.38
2022-12-11T06:39:05.825Z,100550.91
2022-12-11T06:41:35.116Z,100548.22
2022-12-11T06:44:02.999Z,100544.66
2022-12-11T06:46:30.840Z,100545.50
2022-12-11T06:48:58.993Z,100546.53
2022-12-11T06:51:26.930Z,100545.50
2022-12-11T06:53:55.498Z,100545.69
2022-12-11T06:56:23.428Z,100552.81
2022-12-11T06:58:53.114Z,100542.97
2022-12-11T07:01:21.861Z,100549.03
2022-12-11T07:03:49.841Z,100542.16
2022-12-11T07:06:17.712Z,100559.06
2022-12-11T07:08:45.840Z,100559.91
2022-12-11T07:11:14.931Z,100553.63
2022-12-11T07:13:43.096Z,100560.75
2022-12-11T07:16:13.083Z,100558.84
2022-12-11T07:18:42.155Z,100564.28
2022-12-11T07:21:11.224Z,100558.03
2022-12-11T07:23:39.041Z,100564.50
2022-12-11T07:26:07.206Z,100564.28
2022-12-11T07:28:35.524Z,100565.34
2022-12-11T07:31:06.506Z,100557.19
2022-12-11T07:33:35.819Z,100559.91
2022-12-11T07:36:04.323Z,100564.28
2022-12-11T07:38:32.459Z,100566.19
2022-12-11T07:41:02.000Z,100575.16
2022-12-11T07:43:29.833Z,100564.50
2022-12-11T07:46:01.946Z,100562.38
2022-12-11T07:48:30.174Z,100561.56
2022-12-11T07:51:08.964Z,100571.63
2022-12-11T07:53:36.992Z,100570.78
2022-12-11T07:56:05.342Z,100564.50
2022-12-11T07:58:33.544Z,100563.47
2022-12-11T08:01:01.482Z,100570.78
2022-12-11T08:03:29.364Z,100565.34
2022-12-11T08:05:57.235Z,100565.09
2022-12-11T08:08:26.923Z,100559.06
2022-12-11T08:10:54.810Z,100556.34
2022-12-11T08:13:22.719Z,100560.75
2022-12-11T08:15:50.599Z,100558.84
2022-12-11T08:18:18.728Z,100555.53
2022-12-11T08:20:46.887Z,100565.09
2022-12-11T08:23:14.790Z,100559.91
2022-12-11T08:25:44.002Z,100565.09
2022-12-11T08:28:11.899Z,100559.06
2022-12-11T08:30:40.115Z,100567.81
2022-12-11T08:33:08.072Z,100561.56
2022-12-11T08:35:39.807Z,100572.44
2022-12-11T08:38:07.665Z,100567.00
2022-12-11T08:40:35.843Z,100566.19
2022-12-11T08:43:05.195Z,100560.75
2022-12-11T08:45:33.088Z,100558.84
2022-12-11T08:48:00.931Z,100560.75
2022-12-11T08:50:29.180Z,100553.44
2022-12-11T08:52:57.224Z,100548.78
2022-12-11T08:55:25.101Z,100550.47
2022-12-11T08:57:53.029Z,100555.31
2022-12-11T09:00:22.764Z,100557.78
2022-12-11T09:02:50.676Z,100554.00
2022-12-11T09:05:18.915Z,100557.78
2022-12-11T09:07:46.803Z,100555.91
2022-12-11T09:10:15.013Z,100555.91
2022-12-11T09:12:42.880Z,100557.78
2022-12-11T09:15:11.771Z,100555.91
2022-12-11T09:17:41.166Z,100555.06
2022-12-11T09:20:10.106Z,100556.94
2022-12-11T09:22:38.013Z,100560.75
2022-12-11T09:25:06.642Z,100564.03
2022-12-11T09:27:35.408Z,100567.81
2022-12-11T09:30:03.599Z,100563.22
2022-12-11T09:32:31.504Z,100563.22
2022-12-11T09:35:00.880Z,100558.84
2022-12-11T09:37:28.801Z,100564.03
2022-12-11T09:39:56.943Z,100561.34
2022-12-11T09:42:28.091Z,100559.44
2022-12-11T09:44:56.601Z,100545.69
2022-12-11T09:47:27.441Z,100553.03
2022-12-11T09:50:03.328Z,100553.19
2022-12-11T09:52:34.594Z,100555.91
2022-12-11T09:55:04.585Z,100557.78
2022-12-11T09:57:40.216Z,100554.00
2022-12-11T10:00:17.388Z,100555.91
2022-12-11T10:02:57.672Z,100554.00
2022-12-11T10:05:30.332Z,100551.50
2022-12-11T10:08:01.504Z,100473.19
2022-12-11T10:10:35.073Z,100553.19
2022-12-11T10:13:06.647Z,100553.44
2022-12-11T10:15:39.800Z,100552.13
2022-12-11T10:18:13.851Z,100551.50
2022-12-11T10:20:44.428Z,100549.63
2022-12-11T10:23:16.770Z,100541.47
2022-12-11T10:25:47.274Z,100543.13
2022-12-11T10:28:16.071Z,100542.31
2022-12-11T10:30:47.341Z,100541.47
2022-12-11T10:33:20.051Z,100529.56
2022-12-11T10:35:50.450Z,100524.34
2022-12-11T10:38:21.524Z,100524.94
2022-12-11T10:40:51.344Z,100523.06
2022-12-11T10:43:19.209Z,100523.28
2022-12-11T10:45:54.132Z,100519.72
2022-12-11T10:48:22.337Z,100527.88
2022-12-11T10:51:00.508Z,100515.13
2022-12-11T10:53:29.086Z,100508.03
2022-12-11T10:55:58.008Z,100509.69
2022-12-11T10:58:27.131Z,100508.84
2022-12-11T11:01:04.883Z,100513.03
2022-12-11T11:03:32.800Z,100506.75
2022-12-11T11:06:06.408Z,100507.59
2022-12-11T11:08:44.252Z,100495.28
2022-12-11T11:11:23.313Z,100497.78
2022-12-11T11:13:51.252Z,100499.66
2022-12-11T11:16:20.330Z,100503.22
2022-12-11T11:18:53.677Z,100499.66
2022-12-11T11:21:23.971Z,100499.66
2022-12-11T11:23:53.647Z,100490.66
2022-12-11T11:26:22.682Z,100496.09
2022-12-11T11:28:52.002Z,100501.53
2022-12-11T11:31:20.180Z,100497.78
2022-12-11T11:33:51.390Z,100487.94
2022-12-11T11:36:23.715Z,100486.06
2022-12-11T11:38:54.366Z,100483.34
2022-12-11T11:41:25.002Z,100482.28
2022-12-11T11:43:53.940Z,100481.25
2022-12-11T11:46:23.789Z,100478.75
2022-12-11T11:48:54.797Z,100482.28
2022-12-11T11:51:26.153Z,100449.22
2022-12-11T11:53:55.642Z,100466.81
2022-12-11T11:56:24.485Z,100466.81
2022-12-11T11:58:59.313Z,100466.81
2022-12-11T12:01:27.286Z,100458.06
2022-12-11T12:03:55.158Z,100465.81
2022-12-11T12:06:50.529Z,100464.09
2022-12-11T12:09:24.687Z,100471.41
2022-12-11T12:11:55.612Z,100468.53
2022-12-11T12:17:17.952Z,100463.28
2022-12-11T12:19:51.474Z,100457.47
2022-12-11T12:22:31.524Z,100464.72
2022-12-11T12:25:04.192Z,100438.38
2022-12-11T12:30:23.868Z,100455.13
2022-12-11T12:33:02.781Z,100450.50
2022-12-11T12:35:36.037Z,100455.50
2022-12-11T12:38:11.018Z,100447.59
2022-12-11T12:40:43.338Z,100451.34
2022-12-11T12:43:33.965Z,100447.59
2022-12-11T12:46:07.701Z,100449.69
2022-12-11T12:48:35.626Z,100445.91
2022-12-11T12:51:03.532Z,100438.81
2022-12-11T12:53:34.184Z,100440.25
2022-12-11T12:56:02.179Z,100442.97
2022-12-11T12:58:32.647Z,100438.63
2022-12-11T13:01:08.378Z,100444.88
2022-12-11T13:03:37.571Z,100426.34
2022-12-11T13:06:07.214Z,100439.66
2022-12-11T13:08:40.217Z,100423.19
2022-12-11T13:11:09.809Z,100436.75
2022-12-11T13:13:38.756Z,100432.31
2022-12-11T13:16:27.483Z,100428.59
2022-12-11T13:18:55.473Z,100429.38
2022-12-11T13:21:32.810Z,100429.38
2022-12-11T13:24:18.693Z,100434.03
2022-12-11T13:26:46.567Z,100431.50
2022-12-11T13:29:31.061Z,100439.66
2022-12-11T13:32:00.050Z,100435.03
2022-12-11T13:34:30.443Z,100431.50
2022-12-11T13:36:58.579Z,100431.50
2022-12-11T13:39:28.584Z,100420.06
2022-12-11T13:41:58.281Z,100438.63
2022-12-11T13:44:27.664Z,100421.06
2022-12-11T13:46:56.208Z,100434.03
2022-12-11T13:49:25.757Z,100434.81
2022-12-11T13:51:55.381Z,100435.91
2022-12-11T13:54:23.312Z,100440.25
2022-12-11T13:56:57.868Z,100435.91
2022-12-11T13:59:29.287Z,100440.25
2022-12-11T14:01:58.332Z,100442.97
2022-12-11T14:04:28.037Z,100445.69
2022-12-11T14:06:56.538Z,100447.34
2022-12-11T14:09:26.223Z,100450.09
2022-12-11T14:11:56.964Z,100451.97
2022-12-11T14:14:28.480Z,100453.84
2022-12-11T14:16:56.572Z,100445.06
2022-12-11T14:19:25.305Z,100453.63
2022-12-11T14:21:59.994Z,100447.34
2022-12-11T14:24:27.851Z,100445.69
2022-12-11T14:26:56.301Z,100455.50
2022-12-11T14:29:32.270Z,100453.03
2022-12-11T14:32:02.710Z,100462.63
2022-12-11T14:34:32.461Z,100456.16
2022-12-11T14:37:00.547Z,100460.94
2022-12-11T14:39:29.947Z,100459.28
2022-12-11T14:41:59.938Z,100464.50
2022-12-11T14:44:29.274Z,100464.50
2022-12-11T14:46:59.841Z,100468.88
2022-12-11T14:49:30.059Z,100468.06
2022-12-11T14:51:58.146Z,100470.78
2022-12-11T14:54:29.601Z,100475.38
2022-12-11T14:56:57.452Z,100474.31
2022-12-11T14:59:30.111Z,100468.06
2022-12-11T15:02:02.141Z,100465.34
2022-12-11T15:04:31.221Z,100472.66
2022-12-11T15:06:59.202Z,100468.06
2022-12-11T15:09:28.356Z,100470.78
2022-12-11T15:11:57.317Z,100460.78
2022-12-11T15:14:25.449Z,100477.25
2022-12-11T15:16:54.232Z,100472.44
2022-12-11T15:19:24.793Z,100477.03
2022-12-11T15:21:52.811Z,100482.47
2022-12-11T15:24:26.359Z,100478.09
2022-12-11T15:26:57.409Z,100477.25
2022-12-11T15:29:28.038Z,100423.50
2022-12-11T15:32:14.526Z,100475.16
2022-12-11T15:34:46.250Z,100474.31
2022-12-11T15:37:21.713Z,100469.94
2022-12-11T15:39:49.888Z,100475.38
2022-12-11T15:42:19.782Z,100471.59
2022-12-11T15:44:47.646Z,100471.59
2022-12-11T15:47:15.574Z,100485.19
2022-12-11T15:49:45.275Z,100476.22
2022-12-11T15:52:13.167Z,100476.22
2022-12-11T15:54:41.104Z,100479.97
2022-12-11T15:57:09.061Z,100481.84
2022-12-11T15:59:37.240Z,100480.81
2022-12-11T16:02:05.198Z,100481.84
2022-12-11T16:04:33.075Z,100492.50
2022-12-11T16:07:02.309Z,100489.78
2022-12-11T16:09:30.503Z,100491.69
2022-12-11T16:11:58.368Z,100486.25
2022-12-11T16:14:26.237Z,100486.25
2022-12-11T16:16:54.410Z,100488.75
2022-12-11T16:19:22.273Z,100486.03
2022-12-11T16:21:50.132Z,100487.09
2022-12-11T16:24:19.446Z,100481.63
2022-12-11T16:26:47.294Z,100477.25
2022-12-11T16:29:15.418Z,100489.78
2022-12-11T16:31:44.020Z,100494.41
2022-12-11T16:34:11.893Z,100479.16
2022-12-11T16:36:39.765Z,100472.06
2022-12-11T16:39:08.591Z,100476.22
2022-12-11T16:41:37.900Z,100474.31
2022-12-11T16:44:06.578Z,100475.38
2022-12-11T16:46:34.581Z,100482.69
2022-12-11T16:49:02.727Z,100483.53
2022-12-11T16:51:30.631Z,100485.41
2022-12-11T16:53:58.957Z,100483.53
2022-12-11T16:56:26.969Z,100473.50
2022-12-11T16:58:56.509Z,100476.22
2022-12-11T17:01:24.503Z,100471.59
2022-12-11T17:03:52.441Z,100475.38
2022-12-11T17:06:20.326Z,100469.94
2022-12-11T17:08:48.519Z,100474.53
2022-12-11T17:11:17.944Z,100469.09
2022-12-11T17:13:45.821Z,100471.81
2022-12-11T17:16:15.979Z,100471.00
2022-12-11T17:18:44.349Z,100471.00
2022-12-11T17:21:13.042Z,100473.50
2022-12-11T17:23:41.081Z,100472.66
2022-12-11T17:26:09.018Z,100467.00
2022-12-11T17:28:37.339Z,100476.00
2022-12-11T17:31:05.454Z,100465.56
2022-12-11T17:33:34.848Z,100460.13
2022-12-11T17:36:03.094Z,100468.28
2022-12-11T17:38:31.317Z,100472.88
2022-12-11T17:40:59.214Z,100465.56
2022-12-11T17:43:27.253Z,100468.06
2022-12-11T17:45:55.243Z,100463.91
2022-12-11T17:48:23.414Z,100464.50
2022-12-11T17:50:52.973Z,100469.09
2022-12-11T17:53:21.319Z,100477.25
2022-12-11T17:55:51.607Z,100474.53
2022-12-11T17:58:21.733Z,100468.28
2022-12-11T18:00:51.524Z,100464.50
2022-12-11T18:03:19.705Z,100468.28
2022-12-11T18:05:48.689Z,100468.28
2022-12-11T18:08:18.990Z,100468.28
2022-12-11T18:10:46.923Z,100472.88
2022-12-11T18:13:14.947Z,100468.53
2022-12-11T18:15:42.971Z,100467.66
2022-12-11T18:18:11.138Z,100464.72
2022-12-11T18:20:39.978Z,100474.53
2022-12-11T18:23:08.025Z,100477.25
2022-12-11T18:25:37.356Z,100476.44
2022-12-11T18:28:05.790Z,100474.78
2022-12-11T18:30:33.937Z,100475.59
2022-12-11T18:33:01.822Z,100483.75
2022-12-11T18:35:30.561Z,100474.78
2022-12-11T18:37:58.651Z,100474.97
2022-12-11T18:40:28.732Z,100485.66
2022-12-11T18:42:58.728Z,100482.94
2022-12-11T18:45:26.575Z,100483.75
2022-12-11T18:47:55.695Z,100485.41
2022-12-11T18:50:23.928Z,100471.00
2022-12-11T18:52:54.210Z,100475.59
2022-12-11T18:55:22.151Z,100472.88
2022-12-11T18:57:50.076Z,100478.31
2022-12-11T19:00:20.201Z,100473.09
2022-12-11T19:02:49.278Z,100469.34
2022-12-11T19:05:17.177Z,100472.06
2022-12-11T19:07:45.081Z,100463.09
2022-12-11T19:10:13.367Z,100464.94
2022-12-11T19:12:42.869Z,100482.69
2022-12-11T19:15:12.110Z,100475.38
2022-12-11T19:17:43.185Z,100476.44
2022-12-11T19:20:40.518Z,100478.09
2022-12-11T19:23:01.371Z,100483.75
2022-12-11T19:25:29.261Z,100473.09
2022-12-11T19:27:57.491Z,100470.81
2022-12-11T19:30:25.885Z,100478.31
2022-12-11T19:32:55.209Z,100485.41
2022-12-11T19:35:23.070Z,100486.47
2022-12-11T19:37:50.987Z,100482.94
2022-12-11T19:40:21.472Z,100488.38
2022-12-11T19:42:49.340Z,100486.47
2022-12-11T19:45:17.351Z,100482.94
2022-12-11T19:47:45.224Z,100484.81
2022-12-11T19:50:15.164Z,100487.28
2022-12-11T19:52:46.389Z,100479.41
2022-12-11T19:55:15.123Z,100471.25
2022-12-11T19:57:43.136Z,100472.88
2022-12-11T20:00:12.248Z,100474.97
2022-12-11T20:02:40.160Z,100471.25
2022-12-11T20:05:09.110Z,100477.50
2022-12-11T20:07:38.745Z,100477.25
2022-12-11T20:10:07.879Z,100479.41
2022-12-11T20:12:35.726Z,100465.81
2022-12-11T20:15:04.469Z,100460.13
2022-12-11T20:17:33.272Z,100460.72
2022-12-11T20:20:01.742Z,100460.94
2022-12-11T20:22:29.582Z,100459.06
2022-12-11T20:24:58.826Z,100464.50
2022-12-11T20:27:28.497Z,100460.13
2022-12-11T20:29:56.685Z,100463.44
2022-12-11T20:32:24.589Z,100458.00
2022-12-11T20:34:56.145Z,100462.63
2022-12-11T20:37:24.029Z,100461.19
2022-12-11T20:39:52.170Z,100464.50
2022-12-11T20:42:21.480Z,100462.41
2022-12-11T20:44:49.804Z,100454.03
2022-12-11T20:47:19.666Z,100467.63
2022-12-11T20:49:48.057Z,100461.56
2022-12-11T20:52:15.947Z,100454.25
2022-12-11T20:54:43.818Z,100458.84
2022-12-11T20:57:11.904Z,100458.84
2022-12-11T20:59:41.447Z,100465.94
2022-12-11T21:02:09.536Z,100454.69
2022-12-11T21:04:39.614Z,100451.13
2022-12-11T21:07:07.476Z,100451.97
2022-12-11T21:09:35.648Z,100438.03
2022-12-11T21:12:03.572Z,100455.75
2022-12-11T21:14:31.472Z,100460.38
2022-12-11T21:17:00.745Z,100461.19
2022-12-11T21:19:29.164Z,100471.25
2022-12-11T21:21:57.944Z,100471.25
2022-12-11T21:24:27.469Z,100470.38
2022-12-11T21:26:56.376Z,100471.25
2022-12-11T21:29:24.619Z,100463.91
2022-12-11T21:31:52.600Z,100468.53
2022-12-11T21:34:25.380Z,100471.25
2022-12-11T21:36:59.942Z,100471.25
2022-12-11T21:39:31.607Z,100474.78
2022-12-11T21:42:01.514Z,100465.81
2022-12-11T21:47:17.903Z,100474.97
2022-12-11T21:49:47.466Z,100468.72
2022-12-11T21:52:15.352Z,100473.31
2022-12-11T21:54:43.200Z,100461.59
2022-12-11T21:57:11.120Z,100457.47
2022-12-11T21:59:39.289Z,100460.56
2022-12-11T22:02:07.206Z,100457.84
2022-12-11T22:04:36.356Z,100463.28
2022-12-11T22:07:05.657Z,100476.03
2022-12-11T22:09:33.834Z,100481.25
2022-12-11T22:12:01.807Z,100480.63
2022-12-11T22:14:31.251Z,100479.56
2022-12-11T22:16:59.240Z,100485.00
2022-12-11T22:19:32.335Z,100492.34
2022-12-11T22:22:00.617Z,100495.06
2022-12-11T22:24:29.845Z,100495.88
2022-12-11T22:26:57.729Z,100495.88
2022-12-11T22:29:25.868Z,100500.50
2022-12-11T22:31:54.542Z,100495.88
2022-12-11T22:34:22.500Z,100511.34
2022-12-11T22:36:50.344Z,100509.47
2022-12-11T22:39:18.556Z,100502.38
2022-12-11T22:41:47.871Z,100512.19
2022-12-11T22:44:16.865Z,100513.03
2022-12-11T22:46:49.651Z,100504.03
2022-12-11T22:49:18.694Z,100511.16
2022-12-11T22:51:46.684Z,100509.28
2022-12-11T22:54:14.558Z,100504.88
2022-12-11T22:56:42.498Z,100503.00
2022-12-11T22:59:12.084Z,100503.84
2022-12-11T23:01:40.425Z,100501.97
2022-12-11T23:04:08.273Z,100510.94
2022-12-11T23:06:36.138Z,100512.00
2022-12-11T23:09:04.465Z,100513.66
2022-12-11T23:11:34.768Z,100507.41
2022-12-11T23:14:02.691Z,100507.16
2022-12-11T23:16:31.959Z,100502.78
2022-12-11T23:19:00.086Z,100508.22
2022-12-11T23:21:28.302Z,100509.66
2022-12-11T23:23:56.228Z,100510.72
2022-12-11T23:26:24.429Z,100520.53
2022-12-11T23:28:52.759Z,100519.91
2022-12-11T23:31:20.767Z,100514.25
2022-12-11T23:33:50.056Z,100513.44
2022-12-11T23:36:18.020Z,100509.88
2022-12-11T23:38:50.933Z,100513.44
2022-12-11T23:41:20.645Z,100513.44
2022-12-11T23:43:48.488Z,100516.34
2022-12-11T23:46:18.442Z,100511.53
2022-12-11T23:48:46.664Z,100517.19
2022-12-11T23:51:17.833Z,100513.66
2022-12-11T23:53:45.678Z,100516.34
2022-12-11T23:56:14.887Z,100513.66
2022-12-11T23:58:43.141Z,100519.91
